createdAt,value
2023-03-10T00:00:09.420Z,97.32
2023-03-10T00:03:01.276Z,97.90
2023-03-10T00:05:33.095Z,98.07
2023-03-10T00:08:05.073Z,98.01
2023-03-10T00:10:36.898Z,97.98
2023-03-10T00:13:08.687Z,97.71
2023-03-10T00:15:40.596Z,98.19
2023-03-10T00:18:12.794Z,97.91
2023-03-10T00:20:44.669Z,98.01
2023-03-10T00:23:16.893Z,97.94
2023-03-10T00:25:56.649Z,97.82
2023-03-10T00:28:29.342Z,98.20
2023-03-10T00:31:04.851Z,98.10
2023-03-10T00:33:37.195Z,98.48
2023-03-10T00:36:12.102Z,98.51
2023-03-10T00:38:44.825Z,98.69
2023-03-10T00:41:15.817Z,98.58
2023-03-10T00:43:47.921Z,98.59
2023-03-10T00:46:20.049Z,98.55
2023-03-10T00:48:52.262Z,98.73
2023-03-10T00:51:24.636Z,98.67
2023-03-10T00:53:56.412Z,98.62
2023-03-10T00:56:30.643Z,98.71
2023-03-10T00:59:02.690Z,98.82
2023-03-10T01:01:36.883Z,98.54
2023-03-10T01:04:10.852Z,98.48
2023-03-10T01:06:44.576Z,98.22
2023-03-10T01:09:16.528Z,98.52
2023-03-10T01:11:49.070Z,98.46
2023-03-10T01:14:22.029Z,98.94
2023-03-10T01:16:52.328Z,99.17
2023-03-10T01:19:26.003Z,98.93
2023-03-10T01:21:57.795Z,99.14
2023-03-10T01:24:29.668Z,99.22
2023-03-10T01:27:01.431Z,99.72
2023-03-10T01:29:33.234Z,99.43
2023-03-10T01:32:05.128Z,99.50
2023-03-10T01:34:36.926Z,99.68
2023-03-10T01:37:08.973Z,99.89
2023-03-10T01:39:40.729Z,99.99
2023-03-10T01:42:12.840Z,99.95
2023-03-10T01:45:04.105Z,100.00
2023-03-10T01:47:35.847Z,100.00
2023-03-10T01:50:10.771Z,100.00
2023-03-10T01:52:45.200Z,100.00
2023-03-10T01:55:20.942Z,100.00
2023-03-10T01:57:54.960Z,100.00
2023-03-10T02:00:29.444Z,100.00
2023-03-10T02:03:08.812Z,99.93
2023-03-10T02:05:44.908Z,99.94
2023-03-10T02:08:19.348Z,100.00
2023-03-10T02:10:52.499Z,100.00
2023-03-10T02:13:24.439Z,100.00
2023-03-10T02:15:56.261Z,100.00
2023-03-10T02:18:29.434Z,100.00
2023-03-10T02:21:11.387Z,100.00
2023-03-10T02:24:01.112Z,100.00
2023-03-10T02:26:43.198Z,100.00
2023-03-10T02:29:22.649Z,100.00
2023-03-10T02:31:55.926Z,100.00
2023-03-10T02:34:29.205Z,100.00
2023-03-10T02:37:01.092Z,100.00
2023-03-10T02:39:32.937Z,100.00
2023-03-10T02:42:06.431Z,100.00
2023-03-10T02:44:39.670Z,100.00
2023-03-10T02:47:11.579Z,100.00
2023-03-10T02:49:44.201Z,100.00
2023-03-10T02:52:32.778Z,100.00
2023-03-10T02:55:04.816Z,100.00
2023-03-10T02:57:36.636Z,100.00
2023-03-10T03:00:11.254Z,100.00
2023-03-10T03:02:43.150Z,100.00
2023-03-10T03:05:15.062Z,100.00
2023-03-10T03:07:48.176Z,100.00
2023-03-10T03:10:21.476Z,100.00
2023-03-10T03:12:56.068Z,100.00
2023-03-10T03:15:28.481Z,100.00
2023-03-10T03:17:59.494Z,100.00
2023-03-10T03:20:33.257Z,100.00
2023-03-10T03:23:05.413Z,100.00
2023-03-10T03:25:40.458Z,100.00
2023-03-10T03:28:14.582Z,100.00
2023-03-10T03:30:48.675Z,100.00
2023-03-10T03:33:20.534Z,100.00
2023-03-10T03:35:52.344Z,100.00
2023-03-10T03:38:24.406Z,100.00
2023-03-10T03:40:57.452Z,100.00
2023-03-10T03:43:29.546Z,100.00
2023-03-10T03:46:01.636Z,100.00
2023-03-10T03:48:34.769Z,100.00
2023-03-10T03:51:08.080Z,100.00
2023-03-10T03:53:43.654Z,100.00
2023-03-10T03:56:16.516Z,100.00
2023-03-10T03:58:48.996Z,100.00
2023-03-10T04:01:21.102Z,100.00
2023-03-10T04:03:55.448Z,100.00
2023-03-10T04:06:27.940Z,100.00
2023-03-10T04:08:59.989Z,100.00
2023-03-10T04:11:31.025Z,100.00
2023-03-10T04:14:03.225Z,100.00
2023-03-10T04:16:35.680Z,100.00
2023-03-10T04:19:08.784Z,100.00
2023-03-10T04:21:42.938Z,100.00
2023-03-10T04:24:14.886Z,100.00
2023-03-10T04:26:47.170Z,100.00
2023-03-10T04:29:19.072Z,100.00
2023-03-10T04:32:04.725Z,100.00
2023-03-10T04:34:38.688Z,100.00
2023-03-10T04:37:10.908Z,100.00
2023-03-10T04:39:43.091Z,100.00
2023-03-10T04:42:15.691Z,100.00
2023-03-10T04:44:47.501Z,100.00
2023-03-10T04:47:19.582Z,100.00
2023-03-10T04:49:52.200Z,100.00
2023-03-10T04:52:25.126Z,100.00
2023-03-10T04:54:57.337Z,100.00
2023-03-10T04:57:30.051Z,100.00
2023-03-10T05:00:03.328Z,100.00
2023-03-10T05:02:37.551Z,100.00
2023-03-10T05:05:10.630Z,100.00
2023-03-10T05:07:44.083Z,100.00
2023-03-10T05:10:16.823Z,100.00
2023-03-10T05:12:48.924Z,100.00
2023-03-10T05:15:21.260Z,100.00
2023-03-10T05:17:54.122Z,100.00
2023-03-10T05:20:26.659Z,100.00
2023-03-10T05:22:58.904Z,100.00
2023-03-10T05:25:31.243Z,100.00
2023-03-10T05:28:03.679Z,100.00
2023-03-10T05:30:37.385Z,100.00
2023-03-10T05:33:09.562Z,100.00
2023-03-10T05:35:41.984Z,100.00
2023-03-10T05:38:14.155Z,100.00
2023-03-10T05:40:46.050Z,100.00
2023-03-10T05:43:18.362Z,100.00
2023-03-10T05:45:59.401Z,100.00
2023-03-10T05:48:32.430Z,100.00
2023-03-10T05:51:03.484Z,100.00
2023-03-10T05:53:37.164Z,100.00
2023-03-10T05:56:11.496Z,100.00
2023-03-10T05:58:44.626Z,100.00
2023-03-10T06:01:17.494Z,100.00
2023-03-10T06:03:49.376Z,100.00
2023-03-10T06:06:21.358Z,100.00
2023-03-10T06:08:53.224Z,100.00
2023-03-10T06:11:25.312Z,100.00
2023-03-10T06:13:58.072Z,100.00
2023-03-10T06:16:30.860Z,100.00
2023-03-10T06:19:02.656Z,100.00
2023-03-10T06:21:34.493Z,100.00
2023-03-10T06:24:06.589Z,100.00
2023-03-10T06:26:38.603Z,100.00
2023-03-10T06:29:10.738Z,100.00
2023-03-10T06:31:43.048Z,100.00
2023-03-10T06:34:14.838Z,100.00
2023-03-10T06:36:46.769Z,100.00
2023-03-10T06:39:18.600Z,100.00
2023-03-10T06:41:50.388Z,100.00
2023-03-10T06:44:22.307Z,100.00
2023-03-10T06:46:54.096Z,100.00
2023-03-10T06:49:29.262Z,100.00
2023-03-10T06:52:01.629Z,100.00
2023-03-10T06:54:33.912Z,100.00
2023-03-10T06:57:06.941Z,100.00
2023-03-10T06:59:38.838Z,100.00
2023-03-10T07:02:13.538Z,100.00
2023-03-10T07:04:45.581Z,100.00
2023-03-10T07:07:17.450Z,100.00
2023-03-10T07:09:49.322Z,100.00
2023-03-10T07:12:21.135Z,100.00
2023-03-10T07:14:53.152Z,100.00
2023-03-10T07:17:24.914Z,100.00
2023-03-10T07:19:56.945Z,100.00
2023-03-10T07:22:28.972Z,100.00
2023-03-10T07:25:00.816Z,100.00
2023-03-10T07:27:33.773Z,100.00
2023-03-10T07:30:06.616Z,100.00
2023-03-10T07:32:38.578Z,100.00
2023-03-10T07:35:11.852Z,100.00
2023-03-10T07:37:43.602Z,100.00
2023-03-10T07:40:15.890Z,100.00
2023-03-10T07:42:47.670Z,100.00
2023-03-10T07:45:20.329Z,100.00
2023-03-10T07:47:52.836Z,100.00
2023-03-10T07:50:24.850Z,100.00
2023-03-10T07:52:56.730Z,100.00
2023-03-10T07:55:28.536Z,100.00
2023-03-10T07:58:01.131Z,100.00
2023-03-10T08:00:32.911Z,100.00
2023-03-10T08:03:04.811Z,100.00
2023-03-10T08:05:40.156Z,100.00
2023-03-10T08:08:12.272Z,100.00
2023-03-10T08:10:44.120Z,100.00
2023-03-10T08:13:16.087Z,100.00
2023-03-10T08:15:48.039Z,100.00
2023-03-10T08:18:20.066Z,100.00
2023-03-10T08:20:51.912Z,100.00
2023-03-10T08:23:41.669Z,100.00
2023-03-10T08:26:17.901Z,100.00
2023-03-10T08:28:50.521Z,100.00
2023-03-10T08:31:23.349Z,100.00
2023-03-10T08:33:58.513Z,100.00
2023-03-10T08:36:32.526Z,100.00
2023-03-10T08:39:05.720Z,100.00
2023-03-10T08:41:39.778Z,100.00
2023-03-10T08:44:15.257Z,100.00
2023-03-10T08:46:49.809Z,100.00
2023-03-10T08:49:23.109Z,100.00
2023-03-10T08:51:55.133Z,100.00
2023-03-10T08:54:27.065Z,100.00
2023-03-10T08:56:59.447Z,100.00
2023-03-10T08:59:31.504Z,100.00
2023-03-10T09:02:03.526Z,100.00
2023-03-10T09:04:35.634Z,100.00
2023-03-10T09:07:07.730Z,100.00
2023-03-10T09:09:39.663Z,100.00
2023-03-10T09:12:12.423Z,100.00
2023-03-10T09:14:42.594Z,100.00
2023-03-10T09:17:14.424Z,100.00
2023-03-10T09:19:46.340Z,100.00
2023-03-10T09:22:18.511Z,100.00
2023-03-10T09:24:50.344Z,100.00
2023-03-10T09:27:22.455Z,100.00
2023-03-10T09:29:54.220Z,100.00
2023-03-10T09:32:26.286Z,100.00
2023-03-10T09:34:58.254Z,100.00
2023-03-10T09:37:30.197Z,100.00
2023-03-10T09:40:03.797Z,100.00
2023-03-10T09:42:42.183Z,100.00
2023-03-10T09:45:25.302Z,100.00
2023-03-10T09:48:08.669Z,100.00
2023-03-10T09:50:44.642Z,100.00
2023-03-10T09:53:39.874Z,100.00
2023-03-10T09:56:16.807Z,100.00
2023-03-10T09:58:51.970Z,100.00
2023-03-10T10:01:26.509Z,100.00
2023-03-10T10:04:01.707Z,100.00
2023-03-10T10:06:37.991Z,100.00
2023-03-10T10:09:16.425Z,100.00
2023-03-10T10:11:48.685Z,100.00
2023-03-10T10:14:31.457Z,100.00
2023-03-10T10:17:10.701Z,100.00
2023-03-10T10:19:43.021Z,100.00
2023-03-10T10:22:24.438Z,100.00
2023-03-10T10:25:08.310Z,100.00
2023-03-10T10:27:41.871Z,100.00
2023-03-10T10:30:33.140Z,100.00
2023-03-10T10:33:07.730Z,100.00
2023-03-10T10:35:41.538Z,100.00
2023-03-10T10:38:27.107Z,100.00
2023-03-10T10:41:07.006Z,100.00
2023-03-10T10:43:45.534Z,100.00
2023-03-10T10:46:26.030Z,100.00
2023-03-10T10:49:07.602Z,100.00
2023-03-10T10:51:39.629Z,100.00
2023-03-10T10:54:28.464Z,100.00
2023-03-10T10:57:02.463Z,100.00
2023-03-10T10:59:36.501Z,100.00
2023-03-10T11:02:28.150Z,100.00
2023-03-10T11:05:14.422Z,100.00
2023-03-10T11:07:46.451Z,100.00
2023-03-10T11:10:20.817Z,100.00
2023-03-10T11:13:14.212Z,100.00
2023-03-10T11:15:55.854Z,100.00
2023-03-10T11:18:32.998Z,100.00
2023-03-10T11:21:13.216Z,100.00
2023-03-10T11:23:51.750Z,100.00
2023-03-10T11:26:44.642Z,100.00
2023-03-10T11:29:20.185Z,100.00
2023-03-10T11:31:56.294Z,100.00
2023-03-10T11:34:32.884Z,100.00
2023-03-10T11:37:16.922Z,100.00
2023-03-10T11:40:07.471Z,99.92
2023-03-10T11:42:48.368Z,99.73
2023-03-10T11:45:28.607Z,99.75
2023-03-10T11:48:27.059Z,99.63
2023-03-10T11:51:00.967Z,99.59
2023-03-10T11:53:39.294Z,99.87
2023-03-10T11:56:12.481Z,100.00
2023-03-10T11:58:52.975Z,100.00
2023-03-10T12:01:30.673Z,100.00
2023-03-10T12:04:10.517Z,100.00
2023-03-10T12:06:49.126Z,100.00
2023-03-10T12:09:31.215Z,100.00
2023-03-10T12:12:06.221Z,100.00
2023-03-10T12:14:38.470Z,99.42
2023-03-10T12:17:14.538Z,98.66
2023-03-10T12:20:11.995Z,97.73
2023-03-10T12:22:46.620Z,96.88
2023-03-10T12:25:46.851Z,96.41
2023-03-10T12:28:27.913Z,95.84
2023-03-10T12:31:01.626Z,96.00
2023-03-10T12:34:09.145Z,95.47
2023-03-10T12:36:45.003Z,94.89
2023-03-10T12:39:39.766Z,94.85
2023-03-10T12:42:29.486Z,93.82
2023-03-10T12:45:24.192Z,93.10
2023-03-10T12:48:07.551Z,93.00
2023-03-10T12:50:52.629Z,93.14
2023-03-10T12:53:38.882Z,93.12
2023-03-10T12:56:23.665Z,92.97
2023-03-10T12:59:05.395Z,92.40
2023-03-10T13:01:55.160Z,92.31
2023-03-10T13:04:29.193Z,92.13
2023-03-10T13:07:03.884Z,92.54
2023-03-10T13:09:42.358Z,92.54
2023-03-10T13:12:21.462Z,92.11
2023-03-10T13:14:58.278Z,92.35
2023-03-10T13:17:31.915Z,91.94
2023-03-10T13:20:09.520Z,92.09
2023-03-10T13:22:43.394Z,92.03
2023-03-10T13:25:17.241Z,91.92
2023-03-10T13:27:49.104Z,92.11
2023-03-10T13:30:26.678Z,92.11
2023-03-10T13:33:01.369Z,92.02
2023-03-10T13:35:36.295Z,91.43
2023-03-10T13:38:13.282Z,91.82
2023-03-10T13:40:47.553Z,91.36
2023-03-10T13:43:38.836Z,91.07
2023-03-10T13:46:18.463Z,90.87
2023-03-10T13:48:51.865Z,90.58
2023-03-10T13:51:25.833Z,90.28
2023-03-10T13:54:11.774Z,90.49
2023-03-10T13:56:45.019Z,90.35
2023-03-10T13:59:21.002Z,90.43
2023-03-10T14:01:56.450Z,90.82
2023-03-10T14:04:47.584Z,90.82
2023-03-10T14:07:21.576Z,90.66
2023-03-10T14:10:14.947Z,90.96
2023-03-10T14:12:48.786Z,90.68
2023-03-10T14:15:27.301Z,90.79
2023-03-10T14:18:19.474Z,91.18
2023-03-10T14:20:51.384Z,91.43
2023-03-10T14:23:29.136Z,92.25
2023-03-10T14:26:02.006Z,92.61
2023-03-10T14:28:34.751Z,92.89
2023-03-10T14:31:06.827Z,92.89
2023-03-10T14:33:40.544Z,92.66
2023-03-10T14:36:13.845Z,93.00
2023-03-10T14:38:48.464Z,93.14
2023-03-10T14:41:24.112Z,92.95
2023-03-10T14:43:56.183Z,93.09
2023-03-10T14:46:28.610Z,93.29
2023-03-10T14:49:00.715Z,93.80
2023-03-10T14:51:35.841Z,94.22
2023-03-10T14:54:17.503Z,94.84
2023-03-10T14:56:53.697Z,95.25
2023-03-10T14:59:26.243Z,95.37
2023-03-10T15:02:00.482Z,95.45
2023-03-10T15:04:32.552Z,95.43
2023-03-10T15:07:04.769Z,95.14
2023-03-10T15:09:36.675Z,95.11
2023-03-10T15:12:09.581Z,94.75
2023-03-10T15:14:41.749Z,94.35
2023-03-10T15:17:15.273Z,93.51
2023-03-10T15:19:47.249Z,93.16
2023-03-10T15:22:19.706Z,93.01
2023-03-10T15:24:51.697Z,93.07
2023-03-10T15:27:23.516Z,93.32
2023-03-10T15:29:55.409Z,93.55
2023-03-10T15:32:27.504Z,93.80
2023-03-10T15:35:00.299Z,93.97
2023-03-10T15:37:32.244Z,93.90
2023-03-10T15:40:05.069Z,94.07
2023-03-10T15:42:37.425Z,94.35
2023-03-10T15:45:10.952Z,94.60
2023-03-10T15:47:42.966Z,94.75
2023-03-10T15:50:16.640Z,95.01
2023-03-10T15:52:50.749Z,95.03
2023-03-10T15:55:23.493Z,95.01
2023-03-10T15:57:54.352Z,95.23
2023-03-10T16:00:27.903Z,95.83
2023-03-10T16:02:59.701Z,95.99
2023-03-10T16:05:32.152Z,96.23
2023-03-10T16:08:06.271Z,96.28
2023-03-10T16:10:39.870Z,96.51
2023-03-10T16:13:11.553Z,96.53
2023-03-10T16:15:43.682Z,96.79
2023-03-10T16:18:15.729Z,96.90
2023-03-10T16:20:55.411Z,97.62
2023-03-10T16:23:27.906Z,98.16
2023-03-10T16:26:08.622Z,98.64
2023-03-10T16:28:42.129Z,98.74
2023-03-10T16:31:15.860Z,98.76
2023-03-10T16:33:48.614Z,99.28
2023-03-10T16:36:22.110Z,99.66
2023-03-10T16:38:54.430Z,99.48
2023-03-10T16:41:28.524Z,99.17
2023-03-10T16:44:04.391Z,99.39
2023-03-10T16:46:36.397Z,99.63
2023-03-10T16:49:08.777Z,100.00
2023-03-10T16:51:42.414Z,100.00
2023-03-10T16:54:16.881Z,100.00
2023-03-10T16:56:51.133Z,100.00
2023-03-10T16:59:25.086Z,100.00
2023-03-10T17:01:57.560Z,100.00
2023-03-10T17:04:29.822Z,100.00
2023-03-10T17:07:02.291Z,100.00
2023-03-10T17:09:35.693Z,100.00
2023-03-10T17:12:09.766Z,100.00
2023-03-10T17:14:44.156Z,100.00
2023-03-10T17:17:16.859Z,100.00
2023-03-10T17:19:52.646Z,100.00
2023-03-10T17:22:25.300Z,100.00
2023-03-10T17:25:00.762Z,100.00
2023-03-10T17:27:33.419Z,100.00
2023-03-10T17:30:06.592Z,100.00
2023-03-10T17:32:39.205Z,100.00
2023-03-10T17:35:13.356Z,100.00
2023-03-10T17:37:47.860Z,100.00
2023-03-10T17:40:22.947Z,100.00
2023-03-10T17:42:57.850Z,100.00
2023-03-10T17:45:32.816Z,100.00
2023-03-10T17:48:05.022Z,100.00
2023-03-10T17:50:37.389Z,100.00
2023-03-10T17:53:09.800Z,100.00
2023-03-10T17:55:40.759Z,100.00
2023-03-10T17:58:13.325Z,100.00
2023-03-10T18:00:46.204Z,100.00
2023-03-10T18:03:17.669Z,100.00
2023-03-10T18:05:50.319Z,100.00
2023-03-10T18:08:23.282Z,100.00
2023-03-10T18:11:04.443Z,100.00
2023-03-10T18:13:37.509Z,100.00
2023-03-10T18:16:20.882Z,100.00
2023-03-10T18:18:54.752Z,100.00
2023-03-10T18:21:28.390Z,100.00
2023-03-10T18:24:01.152Z,100.00
2023-03-10T18:26:32.013Z,100.00
2023-03-10T18:29:04.276Z,100.00
2023-03-10T18:31:37.556Z,100.00
2023-03-10T18:34:10.242Z,100.00
2023-03-10T18:36:42.709Z,100.00
2023-03-10T18:39:15.019Z,100.00
2023-03-10T18:41:47.399Z,100.00
2023-03-10T18:44:19.670Z,100.00
2023-03-10T18:46:51.918Z,100.00
2023-03-10T18:49:24.799Z,100.00
2023-03-10T18:51:57.241Z,100.00
2023-03-10T18:54:30.555Z,100.00
2023-03-10T18:57:06.280Z,100.00
2023-03-10T18:59:40.450Z,100.00
2023-03-10T19:02:16.526Z,100.00
2023-03-10T19:04:49.124Z,100.00
2023-03-10T19:07:22.994Z,100.00
2023-03-10T19:09:56.826Z,100.00
2023-03-10T19:12:29.410Z,100.00
2023-03-10T19:15:05.402Z,100.00
2023-03-10T19:17:39.754Z,100.00
2023-03-10T19:20:15.669Z,100.00
2023-03-10T19:22:51.145Z,100.00
2023-03-10T19:25:25.784Z,100.00
2023-03-10T19:27:58.328Z,100.00
2023-03-10T19:30:31.763Z,100.00
2023-03-10T19:33:03.955Z,100.00
2023-03-10T19:35:35.831Z,100.00
2023-03-10T19:38:09.020Z,100.00
2023-03-10T19:40:41.421Z,100.00
2023-03-10T19:43:13.297Z,100.00
2023-03-10T19:45:45.784Z,100.00
2023-03-10T19:48:17.510Z,100.00
2023-03-10T19:50:55.411Z,100.00
2023-03-10T19:53:28.847Z,100.00
2023-03-10T19:56:03.721Z,100.00
2023-03-10T19:58:38.145Z,100.00
2023-03-10T20:01:14.740Z,100.00
2023-03-10T20:03:47.137Z,100.00
2023-03-10T20:06:18.113Z,100.00
2023-03-10T20:08:52.088Z,100.00
2023-03-10T20:11:24.748Z,100.00
2023-03-10T20:13:56.922Z,100.00
2023-03-10T20:16:28.929Z,100.00
2023-03-10T20:19:01.107Z,100.00
2023-03-10T20:21:33.173Z,100.00
2023-03-10T20:24:05.487Z,100.00
2023-03-10T20:26:37.798Z,100.00
2023-03-10T20:29:09.888Z,100.00
2023-03-10T20:31:41.854Z,100.00
2023-03-10T20:34:22.132Z,100.00
2023-03-10T20:36:54.424Z,100.00
2023-03-10T20:39:27.124Z,100.00
2023-03-10T20:41:57.440Z,100.00
2023-03-10T20:44:29.344Z,100.00
2023-03-10T20:47:01.119Z,100.00
2023-03-10T20:49:33.337Z,100.00
2023-03-10T20:52:05.515Z,100.00
2023-03-10T20:54:37.720Z,100.00
2023-03-10T20:57:10.203Z,100.00
2023-03-10T20:59:42.792Z,100.00
2023-03-10T21:02:16.986Z,100.00
2023-03-10T21:04:49.500Z,100.00
2023-03-10T21:07:21.338Z,100.00
2023-03-10T21:09:53.190Z,100.00
2023-03-10T21:12:25.161Z,100.00
2023-03-10T21:14:56.941Z,100.00
2023-03-10T21:17:29.381Z,100.00
2023-03-10T21:20:01.326Z,100.00
2023-03-10T21:22:35.254Z,100.00
2023-03-10T21:25:09.875Z,100.00
2023-03-10T21:27:42.205Z,100.00
2023-03-10T21:30:17.088Z,100.00
2023-03-10T21:32:49.056Z,100.00
2023-03-10T21:35:21.395Z,100.00
2023-03-10T21:37:55.485Z,100.00
2023-03-10T21:40:28.012Z,100.00
2023-03-10T21:43:02.540Z,100.00
2023-03-10T21:45:37.644Z,100.00
2023-03-10T21:48:11.582Z,100.00
2023-03-10T21:50:43.478Z,100.00
2023-03-10T21:53:15.497Z,100.00
2023-03-10T21:55:47.428Z,100.00
2023-03-10T21:58:19.839Z,100.00
2023-03-10T22:00:55.722Z,100.00
2023-03-10T22:03:27.976Z,100.00
2023-03-10T22:05:59.850Z,100.00
2023-03-10T22:08:31.730Z,100.00
2023-03-10T22:11:06.210Z,100.00
2023-03-10T22:13:38.991Z,100.00
2023-03-10T22:16:10.653Z,100.00
2023-03-10T22:18:42.593Z,100.00
2023-03-10T22:21:14.647Z,100.00
2023-03-10T22:23:46.640Z,100.00
2023-03-10T22:26:18.395Z,100.00
2023-03-10T22:28:50.178Z,100.00
2023-03-10T22:31:23.755Z,100.00
2023-03-10T22:33:55.846Z,100.00
2023-03-10T22:36:27.856Z,100.00
2023-03-10T22:39:00.401Z,100.00
2023-03-10T22:41:31.036Z,100.00
2023-03-10T22:44:02.973Z,100.00
2023-03-10T22:46:35.352Z,100.00
2023-03-10T22:49:07.638Z,100.00
2023-03-10T22:51:39.924Z,100.00
2023-03-10T22:54:12.008Z,100.00
2023-03-10T22:56:43.904Z,100.00
2023-03-10T22:59:15.915Z,100.00
2023-03-10T23:01:47.824Z,100.00
2023-03-10T23:04:20.210Z,100.00
2023-03-10T23:06:52.089Z,100.00
2023-03-10T23:09:23.984Z,100.00
2023-03-10T23:11:55.776Z,100.00
2023-03-10T23:14:27.623Z,100.00
2023-03-10T23:16:59.444Z,100.00
2023-03-10T23:19:31.200Z,100.00
2023-03-10T23:22:03.680Z,100.00
2023-03-10T23:24:35.518Z,100.00
2023-03-10T23:27:07.715Z,100.00
2023-03-10T23:29:39.545Z,100.00
2023-03-10T23:32:11.731Z,100.00
2023-03-10T23:34:43.917Z,100.00
2023-03-10T23:37:18.749Z,100.00
2023-03-10T23:39:51.086Z,100.00
2023-03-10T23:42:23.064Z,100.00
2023-03-10T23:44:54.835Z,100.00
2023-03-10T23:47:27.041Z,100.00
2023-03-10T23:49:59.542Z,100.00
2023-03-10T23:52:32.006Z,100.00
2023-03-10T23:55:02.479Z,100.00
2023-03-10T23:57:34.280Z,100.00
